Etusivu
METAR-TAF:

METAR-TAF

Lentoasemat :

Lemmijoki, Norja

Leveyspiiri: 70-04N, Pituuspiiri: 024-59E, korkeus merenpinnasta: 0 m

Tämänhetkinen sää

Tämä raportti tehtiin 12 minuuttia sitten, kello 09.50 UTC
Tuuli 10 kn etelästä/lounaasta
Lämpötila -5°C
Kosteus 86%
Ilmanpaine 1023 hPa
Näkyvyys 10 km tai enemmän
Hajonneita pilviä 1200 ft:n korkeudessa
sadekuuroja näköpiirissä

METAR: ENNA 170950Z 20010KT 9999 VCSH BKN012 M05/M07 Q1023 RMK WIND 1800FT 14007KT

Aika: 11:02 (10:02 UTC)

Sääennuste

Ennuste voimassa 17. päivästä klo 06 UTC - 18. päivään klo 06 UTC
Tuuli 15 kn etelästä
Näkyvyys 10 km tai enemmän
Hajanaisia pilviä 500 ft:n korkeudessa
Hajonneita pilviä 2000 ft:n korkeudessa
Ajoittain
17. päivästä klo 06 UTC - 17. päivään klo 12 UTC
Näkyvyys: 4000 m
800 ft:n korkeudessa
utua

TAF: ENNA 1706/1806 18015KT 9999 SCT005 BKN020 TEMPO 1706/1712 4000 BR VV008

Säähavainnot ja -ennusteet yli 4000 lentoasemalta (METAR- ja TAF-raportit).

Käytössä olevat sääasemat on merkitty karttaan keltaisilla ja punaisilla pisteillä.

Aseta hiiri pisteen päälle nähdäksesi sääaseman nimen.

Klikkaa sitten nähdäksesi säähavainnot ja -ennusteet.

Kartan vaihtaminen: klikkaa mustalla rastilla varustettuja vihreitä pisteitä, niin voit zoomata sisään; viivalla varustettua vihreää pistettä, niin voit zoomata ulos tai vihreitä nuolia, niin pääset viereisille kartoille.


METAR-TAF: